Jago, Mississippi
Current Conditions -  °F | °C
As of 5:54 PM on Wednesday 26 Nov 2014 (Local Time) from KMEM Reporting Station
Broken Clouds Broken Clouds  
Wind Chill:   Ceiling: 8500
Heat Index:   Visibility: 10mi
Dew Point:   Wind: 7mph
Humidity: 63%   Direction: 270°W
Pressure: 30.12"   Gusts: NA
Location:  34.9498°N, 90.0305°W
Report Text: KMEM 262354Z 27006KT 10SM BKN085 08/01 A3012 RMK AO2 SLP199 60000 T00780011 10111 20067 51037 $
Loading
Personal Weather Stations






























Interactive Weather Map New forecast layout! Learn more

10-Day Weather Forecast

Advertisements
Track Severe Weather on mobile